Terminal Aerodrome Forecast
Issued by NWS

Current Version | Previous Version | Graphics & Text | Print | Product List | Glossary On
Versions: 1 2 3 4 5 6 7 8 9 10 11 12 13 14 15 16 17 18 19 20 21 22 23
000
FTUS41 KRLX 250500
TAFCKB
TAF
KCKB 250520Z 2506/2606 00000KT P6SM SCT150
     FM250800 00000KT P6SM BKN110
     FM251900 08004KT 6SM SHRA OVC060
     FM252000 07004KT 5SM SHRA OVC050
     FM260200 05004KT 6SM SHRA BR OVC040=

USA.gov is the U.S. government's official web portal to all federal, state and local government web resources and services.